Freedom of the Seas — C6UZ7 — position and weather

sailwx.info

Track history (hours):
 
Tides and Currents Weather Stations Pressure Air Temp Water Temp Dewpoint Dewpoint Depression Visibility Wind Speed Wind Dir Waves Ship Positions

Freedom of the Seas

Last reported at 2020-Jan-19 04:30 UTC. Time now 2020-Jan-19 15:40 UTC.
Position N 32°02' W 016°33'.

Length 339 m; draft 8.9 m.

Type: Ship. MMSI: 309906000.

Date/timePositionNaut miles runAvg speedWind from/ knotsBaromVisibWave heightAir tempDewpointWater temp
2020-Jan-19 04:30N 32°02' W 016°33'  
2020-Jan-15 16:00N 23°36' W 048°06'   070 / 161024.0 23.717.825.0
2020-Jan-13 08:00N 18°54' W 065°06'2617.1
2020-Jan-13 06:30N 18°45' W 065°31'2716.8
2020-Jan-13 04:53N 18°34' W 065°58'617.3
2020-Jan-13 04:31N 18°32' W 066°04'5 9.8
2020-Jan-13 04:00N 18°28' W 066°07'1 1.0
2020-Jan-13 03:26N 18°28' W 066°06'0 0.0
2020-Jan-13 01:55N 18°28' W 066°06'0 0.0
2020-Jan-13 01:29N 18°28' W 066°06'0 0.0
2020-Jan-13 00:29N 18°28' W 066°06'0 0.0
2020-Jan-12 20:23N 18°28' W 066°06'717.6
2020-Jan-12 20:00N 18°24' W 066°00'7 4.4 080 / 171021.0 27.024.728.0
2020-Jan-12 18:29N 18°28' W 066°06'0 0.0
2020-Jan-12 17:29N 18°28' W 066°06'0 0.0
2020-Jan-12 16:26N 18°28' W 066°06'0 0.0
2020-Jan-12 15:55N 18°28' W 066°06'0 0.0
2020-Jan-12 15:25N 18°28' W 066°06'0 0.0
2020-Jan-12 12:20N 18°28' W 066°06'0 0.0
2020-Jan-12 11:20N 18°28' W 066°06'0 0.0
2020-Jan-12 10:26N 18°28' W 066°06'2 1.3
2020-Jan-12 08:59N 18°29' W 066°08'510.5
2020-Jan-12 08:30N 18°33' W 066°05'2013.1
2020-Jan-12 06:58N 18°33' W 065°43'59 5.9
2020-Jan-11 21:00N 18°24' W 064°42'42016.8 070 / 281018.0 2.2 27.621.528.0
2020-Jan-10 20:00N 13°24' W 059°36'98 3.9 070 / 211016.0 28.123.828.0
2020-Jan-09 19:00N 14°18' W 061°00'17 3.7 050 / 131018.0 28.622.128.0
2020-Jan-09 14:17N 14°01' W 060°60'  
Track history (hours):
 
Tides and Currents Weather Stations Pressure Air Temp Water Temp Dewpoint Dewpoint Depression Visibility Wind Speed Wind Dir Waves Ship Positions

Freedom of the Seas

Last reported at 2020-Jan-19 04:30 UTC. Time now 2020-Jan-19 15:40 UTC.
Position N 32°02' W 016°33'.

Length 339 m; draft 8.9 m.

Type: Ship. MMSI: 309906000.

Date/timePositionNaut miles runAvg speedWind from/ knotsBaromVisibWave heightAir tempDewpointWater temp
2020-Jan-19 04:30N 32°02' W 016°33'  
2020-Jan-15 16:00N 23°36' W 048°06'   070 / 161024.0 23.717.825.0
2020-Jan-13 08:00N 18°54' W 065°06'2617.1
2020-Jan-13 06:30N 18°45' W 065°31'2716.8
2020-Jan-13 04:53N 18°34' W 065°58'617.3
2020-Jan-13 04:31N 18°32' W 066°04'5 9.8
2020-Jan-13 04:00N 18°28' W 066°07'1 1.0
2020-Jan-13 03:26N 18°28' W 066°06'0 0.0
2020-Jan-13 01:55N 18°28' W 066°06'0 0.0
2020-Jan-13 01:29N 18°28' W 066°06'0 0.0
2020-Jan-13 00:29N 18°28' W 066°06'0 0.0
2020-Jan-12 20:23N 18°28' W 066°06'717.6
2020-Jan-12 20:00N 18°24' W 066°00'7 4.4 080 / 171021.0 27.024.728.0
2020-Jan-12 18:29N 18°28' W 066°06'0 0.0
2020-Jan-12 17:29N 18°28' W 066°06'0 0.0
2020-Jan-12 16:26N 18°28' W 066°06'0 0.0
2020-Jan-12 15:55N 18°28' W 066°06'0 0.0
2020-Jan-12 15:25N 18°28' W 066°06'0 0.0
2020-Jan-12 12:20N 18°28' W 066°06'0 0.0
2020-Jan-12 11:20N 18°28' W 066°06'0 0.0
2020-Jan-12 10:26N 18°28' W 066°06'2 1.3
2020-Jan-12 08:59N 18°29' W 066°08'510.5
2020-Jan-12 08:30N 18°33' W 066°05'2013.1
2020-Jan-12 06:58N 18°33' W 065°43'59 5.9
2020-Jan-11 21:00N 18°24' W 064°42'42016.8 070 / 281018.0 2.2 27.621.528.0
2020-Jan-10 20:00N 13°24' W 059°36'98 3.9 070 / 211016.0 28.123.828.0
2020-Jan-09 19:00N 14°18' W 061°00'17 3.7 050 / 131018.0 28.622.128.0
2020-Jan-09 14:17N 14°01' W 060°60'  

Dump ship's entire track history